Time;durP1;ratioP1;P1;durP2;ratioP2;P2;SDS_P1;SDS_P2;PMS_P1;PMS_P2;Temp;Humidity;BMP_temperature;BMP_pressure;BME280_temperature;BME280_humidity;BME280_pressure;Samples;Min_cycle;Max_cycle;Signal;HPM_P1;HPM_P2
2022/12/12 00:02:11;;;;;;;43.75;18.17;;;;;;;-1.90;100.00;99341.94;5016477;28;20599;-75
2022/12/12 00:04:37;;;;;;;41.10;18.98;;;;;;;-1.88;100.00;99348.69;5034355;28;20033;-74
2022/12/12 00:07:02;;;;;;;37.35;16.40;;;;;;;-1.89;100.00;99341.50;5032198;28;20068;-75
2022/12/12 00:09:27;;;;;;;37.13;16.77;;;;;;;-1.83;100.00;99339.78;5014057;28;20052;-77
2022/12/12 00:11:53;;;;;;;41.53;17.60;;;;;;;-1.88;100.00;99342.28;5032065;28;20052;-76
2022/12/12 00:14:18;;;;;;;35.30;15.95;;;;;;;-1.94;100.00;99330.81;4998046;28;20030;-74
2022/12/12 00:16:43;;;;;;;35.72;17.13;;;;;;;-2.09;100.00;99327.53;5032056;28;20025;-76
2022/12/12 00:19:09;;;;;;;38.95;16.10;;;;;;;-2.03;100.00;99337.00;5031763;28;20477;-76
2022/12/12 00:21:34;;;;;;;42.33;18.13;;;;;;;-2.01;100.00;99345.75;5015489;28;20079;-76
2022/12/12 00:23:59;;;;;;;42.47;18.15;;;;;;;-1.96;100.00;99338.06;5016108;28;20042;-74
2022/12/12 00:26:30;;;;;;;43.85;18.25;;;;;;;-1.93;100.00;99342.78;5033797;28;20108;-75
2022/12/12 00:28:57;;;;;;;38.90;16.63;;;;;;;-1.87;100.00;99336.28;5033947;28;20052;-75
2022/12/12 00:31:22;;;;;;;40.08;17.40;;;;;;;-1.90;100.00;99336.34;5033942;28;20033;-75
2022/12/12 00:33:49;;;;;;;35.15;16.92;;;;;;;-1.89;100.00;99341.50;5033863;28;20542;-76
2022/12/12 00:36:20;;;;;;;36.50;16.17;;;;;;;-1.88;100.00;99340.28;5033948;28;20028;-76
2022/12/12 00:38:46;;;;;;;40.25;18.33;;;;;;;-1.90;100.00;99336.34;5033625;28;20471;-77
2022/12/12 00:41:12;;;;;;;39.17;17.05;;;;;;;-1.87;100.00;99338.28;5033620;28;20047;-75
2022/12/12 00:43:37;;;;;;;37.08;16.83;;;;;;;-1.82;100.00;99351.78;5033957;28;20026;-76
2022/12/12 00:46:03;;;;;;;36.20;16.92;;;;;;;-1.83;100.00;99350.19;5033738;28;20025;-76
2022/12/12 00:48:28;;;;;;;40.58;16.92;;;;;;;-1.88;100.00;99348.69;5033537;28;20033;-75
2022/12/12 00:50:55;;;;;;;35.15;16.13;;;;;;;-1.86;100.00;99346.25;5033490;28;20057;-75
2022/12/12 00:53:21;;;;;;;43.70;17.88;;;;;;;-1.86;100.00;99356.66;5032708;28;20491;-75
2022/12/12 00:55:54;;;;;;;36.08;17.02;;;;;;;-1.81;100.00;99356.16;5015743;28;20116;-76
2022/12/12 00:58:19;;;;;;;44.70;16.55;;;;;;;-1.83;100.00;99355.78;5033340;28;20487;-75
2022/12/12 01:00:44;;;;;;;36.33;16.65;;;;;;;-1.79;100.00;99346.09;5033428;28;20072;-76
2022/12/12 01:03:10;;;;;;;37.80;16.17;;;;;;;-1.74;100.00;99355.97;5033487;28;20028;-75
2022/12/12 01:05:35;;;;;;;46.78;17.25;;;;;;;-1.76;100.00;99350.84;5015512;28;20414;-75
2022/12/12 01:08:01;;;;;;;35.78;16.23;;;;;;;-1.76;100.00;99350.03;5033076;28;20552;-76
2022/12/12 01:10:26;;;;;;;36.72;15.73;;;;;;;-1.71;100.00;99363.53;5033277;28;20427;-77
2022/12/12 01:12:51;;;;;;;33.35;16.35;;;;;;;-1.76;100.00;99353.63;5033095;28;20544;-76
2022/12/12 01:15:17;;;;;;;37.90;16.92;;;;;;;-1.84;100.00;99349.38;5033559;28;20025;-74
2022/12/12 01:17:42;;;;;;;42.33;18.67;;;;;;;-1.82;100.00;99346.97;5033229;28;20464;-76
2022/12/12 01:20:22;;;;;;;38.03;16.38;;;;;;;-1.81;100.00;99359.75;5033175;28;20033;-76
2022/12/12 01:22:48;;;;;;;39.03;17.42;;;;;;;-1.80;100.00;99358.50;5015517;28;20036;-75
2022/12/12 01:25:14;;;;;;;37.83;17.15;;;;;;;-1.75;100.00;99354.41;5033220;28;20025;-75
2022/12/12 01:27:40;;;;;;;39.00;16.05;;;;;;;-1.69;100.00;99355.47;5015729;28;20040;-76
2022/12/12 01:30:07;;;;;;;42.88;16.30;;;;;;;-1.69;100.00;99352.69;5033292;28;20026;-75
2022/12/12 01:32:33;;;;;;;35.25;17.10;;;;;;;-1.78;100.00;99358.06;5033072;28;20041;-77
2022/12/12 01:34:59;;;;;;;41.47;16.75;;;;;;;-1.79;100.00;99351.69;5033056;28;20428;-76
2022/12/12 01:37:24;;;;;;;32.83;15.00;;;;;;;-1.83;100.00;99350.97;5033253;28;20030;-77
2022/12/12 01:39:50;;;;;;;36.38;16.33;;;;;;;-1.81;100.00;99350.56;5033043;28;20108;-76
2022/12/12 01:42:17;;;;;;;37.45;16.48;;;;;;;-1.89;100.00;99349.91;5033011;28;20037;-76
2022/12/12 01:44:48;;;;;;;39.22;17.65;;;;;;;-1.83;100.00;99350.19;5033132;28;20029;-75
2022/12/12 01:47:16;;;;;;;47.17;16.77;;;;;;;-1.82;100.00;99346.16;5033157;28;20029;-76
2022/12/12 01:50:03;;;;;;;38.30;16.35;;;;;;;-1.75;100.00;99343.19;5033025;28;20064;-75
2022/12/12 01:52:34;;;;;;;36.30;16.63;;;;;;;-1.78;100.00;99335.69;5014945;28;20387;-75
2022/12/12 01:55:02;;;;;;;41.08;16.70;;;;;;;-1.74;100.00;99348.38;5015360;28;20033;-75
2022/12/12 01:57:40;;;;;;;44.25;16.63;;;;;;;-1.82;100.00;99344.16;5015181;28;20116;-75
2022/12/12 02:00:07;;;;;;;35.97;16.52;;;;;;;-1.77;100.00;99352.06;5032840;28;20026;-76
2022/12/12 02:02:33;;;;;;;34.50;16.45;;;;;;;-1.73;100.00;99355.56;4998682;28;20026;-75
2022/12/12 02:05:02;;;;;;;36.28;16.23;;;;;;;-1.74;100.00;99353.19;5001434;28;20029;-75
2022/12/12 02:07:27;;;;;;;29.73;14.52;;;;;;;-1.74;100.00;99356.78;5002327;28;20108;-76
2022/12/12 02:09:53;;;;;;;29.60;15.52;;;;;;;-1.70;100.00;99351.88;5035641;28;20104;-75
2022/12/12 02:12:18;;;;;;;35.20;16.27;;;;;;;-1.67;100.00;99351.03;5034848;28;20159;-75
2022/12/12 02:14:48;;;;;;;36.72;15.73;;;;;;;-1.64;100.00;99354.97;5016534;28;20048;-76
2022/12/12 02:17:50;;;;;;;42.17;17.73;;;;;;;-1.68;100.00;99357.84;5016493;28;20059;-76
2022/12/12 02:20:42;;;;;;;34.93;14.43;;;;;;;-1.69;100.00;99349.88;4992141;28;20396;-75
2022/12/12 02:23:17;;;;;;;33.95;16.60;;;;;;;-1.64;100.00;99358.56;5015607;28;20033;-75
2022/12/12 02:26:18;;;;;;;40.33;17.02;;;;;;;-1.65;100.00;99345.78;5034423;28;20112;-74
2022/12/12 02:29:24;;;;;;;33.72;15.05;;;;;;;-1.57;100.00;99352.03;5012580;28;20047;-75
2022/12/12 02:31:56;;;;;;;38.22;17.38;;;;;;;-1.61;100.00;99340.13;5005943;28;20043;-76
2022/12/12 02:34:33;;;;;;;36.63;15.77;;;;;;;-1.57;100.00;99352.81;5049231;28;20060;-76
2022/12/12 02:37:20;;;;;;;31.80;14.27;;;;;;;-1.54;100.00;99355.94;5034143;28;20033;-76
2022/12/12 02:39:52;;;;;;;33.08;15.13;;;;;;;-1.54;100.00;99344.75;5016349;28;20036;-77
2022/12/12 02:42:27;;;;;;;32.42;14.77;;;;;;;-1.52;100.00;99348.72;5018292;28;20108;-75
2022/12/12 02:45:01;;;;;;;33.80;15.13;;;;;;;-1.43;100.00;99353.72;5036007;28;20432;-75
2022/12/12 02:47:32;;;;;;;33.45;16.10;;;;;;;-1.42;100.00;99344.09;5018030;28;20029;-75
2022/12/12 02:50:03;;;;;;;33.65;16.58;;;;;;;-1.48;100.00;99352.22;5017871;28;20467;-75
2022/12/12 02:52:29;;;;;;;34.30;15.45;;;;;;;-1.50;100.00;99353.84;5035711;28;20037;-75
2022/12/12 02:54:55;;;;;;;32.83;13.23;;;;;;;-1.52;100.00;99347.91;5018070;28;20029;-75
2022/12/12 02:57:22;;;;;;;33.53;15.90;;;;;;;-1.52;100.00;99345.91;5035565;28;20078;-75
2022/12/12 02:59:58;;;;;;;28.20;14.13;;;;;;;-1.47;100.00;99350.19;5035531;28;20025;-75
2022/12/12 03:02:48;;;;;;;40.20;14.70;;;;;;;-1.44;100.00;99341.72;5017668;28;20477;-75
2022/12/12 03:08:19;;;;;;;28.75;12.95;;;;;;;-1.43;100.00;99348.09;5035285;28;20140;-75
2022/12/12 03:11:06;;;;;;;34.47;14.45;;;;;;;-1.39;100.00;99352.41;5046928;28;20029;-74
2022/12/12 03:13:50;;;;;;;37.95;14.75;;;;;;;-1.45;100.00;99342.94;5037458;28;20398;-75
2022/12/12 03:16:18;;;;;;;36.85;14.80;;;;;;;-1.41;100.00;99345.66;5036556;28;20029;-75
2022/12/12 03:18:55;;;;;;;39.75;14.85;;;;;;;-1.34;100.00;99348.28;5070864;28;20430;-75
2022/12/12 03:21:24;;;;;;;35.88;15.13;;;;;;;-1.37;100.00;99347.16;5055001;28;20497;-75
2022/12/12 03:23:53;;;;;;;37.78;15.63;;;;;;;-1.39;100.00;99346.00;5055211;28;20079;-75
2022/12/12 03:26:42;;;;;;;36.05;15.38;;;;;;;-1.42;100.00;99342.06;5054915;28;20032;-76
2022/12/12 03:29:14;;;;;;;39.35;15.00;;;;;;;-1.45;100.00;99336.53;5036842;28;20032;-75
2022/12/12 03:31:44;;;;;;;32.47;15.13;;;;;;;-1.42;100.00;99342.06;5036990;28;20509;-75
2022/12/12 03:34:16;;;;;;;36.75;14.40;;;;;;;-1.42;100.00;99341.28;5021051;28;20124;-75
2022/12/12 03:36:50;;;;;;;29.45;14.60;;;;;;;-1.41;100.00;99335.25;5037073;28;20132;-75
2022/12/12 03:39:37;;;;;;;35.42;14.15;;;;;;;-1.36;100.00;99340.31;5054790;28;20027;-75
2022/12/12 03:42:24;;;;;;;38.53;15.43;;;;;;;-1.35;100.00;99346.72;5036763;28;20713;-76
2022/12/12 03:45:02;;;;;;;31.48;14.25;;;;;;;-1.38;100.00;99339.97;5036857;28;20386;-74
2022/12/12 03:48:17;;;;;;;32.92;15.77;;;;;;;-1.36;100.00;99340.31;5036657;28;20029;-74
2022/12/12 03:50:55;;;;;;;33.10;12.75;;;;;;;-1.38;100.00;99336.38;5020663;28;20041;-75
2022/12/12 03:53:31;;;;;;;35.60;16.42;;;;;;;-1.35;100.00;99336.28;5036645;28;20029;-75
2022/12/12 03:56:35;;;;;;;30.00;15.23;;;;;;;-1.38;100.00;99333.59;5020299;28;20084;-75
2022/12/12 03:59:07;;;;;;;32.70;14.50;;;;;;;-1.34;100.00;99323.88;5032932;28;20048;-76
2022/12/12 04:01:58;;;;;;;35.13;17.42;;;;;;;-1.31;100.00;99327.81;5052885;28;20039;-76
2022/12/12 04:04:46;;;;;;;34.13;13.98;;;;;;;-1.36;100.00;99328.34;5006304;28;20481;-76
2022/12/12 04:07:17;;;;;;;32.78;14.18;;;;;;;-1.45;100.00;99325.31;5069641;28;20032;-76
2022/12/12 04:12:58;;;;;;;32.05;15.25;;;;;;;-1.40;100.00;99331.22;5053171;28;20083;-74
2022/12/12 04:15:26;;;;;;;37.97;15.68;;;;;;;-1.38;100.00;99330.78;5049734;28;20043;-75
2022/12/12 04:17:55;;;;;;;35.65;14.73;;;;;;;-1.40;100.00;99325.59;5054386;28;20059;-75
2022/12/12 04:23:29;;;;;;;36.78;16.05;;;;;;;-1.46;100.00;99327.38;5053137;28;20043;-76
2022/12/12 04:29:40;;;;;;;30.95;14.48;;;;;;;-1.46;100.00;99327.38;5007807;28;20037;-75
2022/12/12 04:32:26;;;;;;;32.53;14.05;;;;;;;-1.45;100.00;99326.13;5048605;28;20041;-75
2022/12/12 04:35:00;;;;;;;31.27;13.80;;;;;;;-1.48;100.00;99329.81;5035889;28;20025;-75
2022/12/12 04:37:38;;;;;;;35.22;14.07;;;;;;;-1.50;100.00;99331.44;5054027;28;20059;-75
2022/12/12 04:40:06;;;;;;;37.70;15.52;;;;;;;-1.49;100.00;99328.22;5035868;28;20048;-74
2022/12/12 04:42:43;;;;;;;29.10;14.50;;;;;;;-1.55;100.00;99324.34;5035686;28;20040;-76
2022/12/12 04:45:18;;;;;;;30.88;14.68;;;;;;;-1.49;100.00;99331.03;5053830;28;20075;-75
2022/12/12 04:47:46;;;;;;;33.10;14.18;;;;;;;-1.56;100.00;99326.38;5035794;28;20060;-75
2022/12/12 04:50:12;;;;;;;35.25;14.20;;;;;;;-1.58;100.00;99328.03;5035817;28;20108;-75
2022/12/12 04:52:38;;;;;;;38.22;15.30;;;;;;;-1.58;100.00;99325.22;5035667;28;20359;-75
2022/12/12 04:55:14;;;;;;;37.47;15.80;;;;;;;-1.65;100.00;99316.97;5035627;28;20085;-74
2022/12/12 04:57:47;;;;;;;37.85;14.65;;;;;;;-1.58;100.00;99323.22;5035857;28;20478;-76
2022/12/12 05:00:13;;;;;;;39.58;16.50;;;;;;;-1.59;100.00;99324.44;5035719;28;20123;-75
2022/12/12 05:03:09;;;;;;;30.85;13.60;;;;;;;-1.60;100.00;99336.84;5035936;28;20025;-76
2022/12/12 05:05:43;;;;;;;28.20;13.52;;;;;;;-1.64;100.00;99312.97;5035766;28;20071;-75
2022/12/12 05:08:18;;;;;;;32.88;15.73;;;;;;;-1.53;100.00;99324.72;5035487;28;20041;-76
2022/12/12 05:10:48;;;;;;;31.48;14.13;;;;;;;-1.56;100.00;99326.38;5053129;28;20025;-75
2022/12/12 05:13:20;;;;;;;34.38;14.27;;;;;;;-1.60;100.00;99319.25;5035485;28;20033;-75
2022/12/12 05:15:48;;;;;;;33.80;16.13;;;;;;;-1.63;100.00;99325.75;5053241;28;20433;-76
2022/12/12 05:18:13;;;;;;;33.60;15.32;;;;;;;-1.65;100.00;99317.78;5035739;28;20158;-74
2022/12/12 05:20:39;;;;;;;33.47;14.13;;;;;;;-1.61;100.00;99326.13;5053287;28;20478;-75
2022/12/12 05:23:04;;;;;;;36.75;15.15;;;;;;;-1.62;100.00;99318.94;5017762;28;20033;-75
2022/12/12 05:25:31;;;;;;;31.30;15.55;;;;;;;-1.57;100.00;99327.59;5035378;28;20382;-74
2022/12/12 05:27:57;;;;;;;27.27;13.27;;;;;;;-1.57;100.00;99324.81;5052873;28;20037;-76
2022/12/12 05:30:23;;;;;;;34.92;15.95;;;;;;;-1.61;100.00;99323.31;5052731;28;20033;-76
2022/12/12 05:32:49;;;;;;;33.60;15.05;;;;;;;-1.51;100.00;99325.09;5051373;28;20025;-75
2022/12/12 05:35:19;;;;;;;33.65;15.60;;;;;;;-1.45;100.00;99328.91;5018611;28;20131;-75
2022/12/12 05:37:44;;;;;;;36.45;15.48;;;;;;;-1.51;100.00;99332.69;5053266;28;20029;-75
2022/12/12 05:40:11;;;;;;;35.55;16.33;;;;;;;-1.57;100.00;99329.63;5056161;28;20092;-74
2022/12/12 05:42:40;;;;;;;33.05;14.82;;;;;;;-1.52;100.00;99329.09;5036827;28;20029;-75
2022/12/12 05:45:22;;;;;;;37.10;16.23;;;;;;;-1.53;100.00;99326.72;5019412;28;20036;-77
2022/12/12 05:47:51;;;;;;;30.92;13.88;;;;;;;-1.46;100.00;99329.38;5024770;28;20029;-74
2022/12/12 05:50:18;;;;;;;30.15;16.20;;;;;;;-1.41;100.00;99332.47;5016533;28;20040;-77
2022/12/12 05:52:44;;;;;;;31.50;15.07;;;;;;;-1.44;100.00;99324.13;5071910;28;20031;-73
2022/12/12 05:55:10;;;;;;;33.55;14.27;;;;;;;-1.38;100.00;99330.78;5056672;28;20021;-74
2022/12/12 05:57:36;;;;;;;34.80;14.45;;;;;;;-1.38;100.00;99336.38;5056876;28;20021;-77
2022/12/12 06:00:03;;;;;;;31.38;13.32;;;;;;;-1.39;100.00;99329.19;5056546;28;20041;-79
2022/12/12 06:02:30;;;;;;;30.95;15.10;;;;;;;-1.32;100.00;99343.84;5055189;28;20470;-77
2022/12/12 06:04:56;;;;;;;28.58;13.57;;;;;;;-1.30;100.00;99338.56;5056652;28;20406;-82
2022/12/12 06:07:22;;;;;;;36.92;14.88;;;;;;;-1.28;100.00;99330.53;5056652;28;20037;-78
2022/12/12 06:09:48;;;;;;;31.35;13.73;;;;;;;-1.27;100.00;99329.31;5054755;28;20095;-77
2022/12/12 06:12:13;;;;;;;28.75;14.73;;;;;;;-1.29;100.00;99326.16;5030612;28;20037;-78
2022/12/12 06:14:40;;;;;;;34.72;15.43;;;;;;;-1.28;100.00;99330.53;5040220;28;20071;-77
2022/12/12 06:17:05;;;;;;;36.17;14.68;;;;;;;-1.25;100.00;99326.06;5037989;28;20099;-78
2022/12/12 06:19:32;;;;;;;32.92;15.70;;;;;;;-1.22;100.00;99339.22;5035311;28;20025;-77
2022/12/12 06:21:58;;;;;;;25.90;12.98;;;;;;;-1.20;100.00;99336.75;5054962;28;20043;-78
2022/12/12 06:24:23;;;;;;;30.88;13.93;;;;;;;-1.19;100.00;99339.13;5054873;28;20107;-76
2022/12/12 06:26:49;;;;;;;27.33;13.93;;;;;;;-1.19;100.00;99336.31;5051125;28;20037;-76
2022/12/12 06:29:36;;;;;;;35.47;16.40;;;;;;;-1.12;100.00;99343.78;5036876;28;20486;-76
2022/12/12 06:32:06;;;;;;;34.60;14.13;;;;;;;-1.06;100.00;99336.41;5054732;28;20058;-78
2022/12/12 06:34:38;;;;;;;27.75;13.10;;;;;;;-1.01;100.00;99338.69;5054715;28;20025;-77
2022/12/12 06:37:05;;;;;;;27.83;12.23;;;;;;;-1.02;100.00;99339.94;5053454;28;20108;-78
2022/12/12 06:39:30;;;;;;;24.83;13.32;;;;;;;-0.88;100.00;99342.38;5053559;28;20112;-78
2022/12/12 06:41:56;;;;;;;31.50;13.07;;;;;;;-0.88;100.00;99347.97;5035523;28;20111;-77
2022/12/12 06:44:21;;;;;;;29.13;13.18;;;;;;;-0.88;100.00;99350.78;5035729;28;20444;-78
2022/12/12 06:46:46;;;;;;;35.03;14.55;;;;;;;-0.89;100.00;99349.19;5053578;28;20052;-77
2022/12/12 06:49:12;;;;;;;33.08;14.35;;;;;;;-0.90;100.00;99347.63;5053587;28;20429;-77
2022/12/12 06:51:42;;;;;;;30.77;13.43;;;;;;;-0.84;100.00;99354.28;5052814;28;20029;-76
2022/12/12 06:54:11;;;;;;;31.77;13.73;;;;;;;-0.80;100.00;99354.19;5055515;28;20524;-77
2022/12/12 06:56:37;;;;;;;30.58;12.85;;;;;;;-0.87;100.00;99340.38;5053964;28;20024;-77
2022/12/12 06:59:02;;;;;;;29.60;12.82;;;;;;;-0.81;100.00;99352.59;5053784;28;20025;-76
2022/12/12 07:01:28;;;;;;;32.47;14.13;;;;;;;-0.81;100.00;99350.59;5035463;28;20086;-77
2022/12/12 07:03:53;;;;;;;27.33;14.15;;;;;;;-0.77;100.00;99353.31;5028237;28;20036;-77
2022/12/12 07:06:20;;;;;;;28.88;13.70;;;;;;;-0.78;100.00;99346.13;5034817;28;20028;-82
2022/12/12 07:08:47;;;;;;;29.65;13.27;;;;;;;-0.84;100.00;99347.88;5009383;28;20037;-81
2022/12/12 07:11:24;;;;;;;31.17;12.80;;;;;;;-0.82;100.00;99356.66;5031955;28;20656;-82
2022/12/12 07:13:51;;;;;;;33.90;13.23;;;;;;;-0.88;100.00;99359.19;5012207;28;20030;-81
2022/12/12 07:16:17;;;;;;;25.67;12.55;;;;;;;-0.90;100.00;99361.63;5022517;28;20044;-80
2022/12/12 07:18:42;;;;;;;25.35;12.65;;;;;;;-0.90;100.00;99369.25;5053370;28;20463;-80
2022/12/12 07:21:11;;;;;;;29.33;11.80;;;;;;;-0.89;100.00;99368.03;5054664;28;20024;-81
2022/12/12 07:23:38;;;;;;;25.58;12.20;;;;;;;-0.98;100.00;99363.03;5037214;28;20470;-83
2022/12/12 07:26:05;;;;;;;24.27;12.05;;;;;;;-0.87;100.00;99369.19;5020470;28;20065;-80
2022/12/12 07:28:31;;;;;;;26.83;12.90;;;;;;;-1.01;100.00;99351.94;5036483;28;20029;-80
2022/12/12 07:30:56;;;;;;;24.67;12.80;;;;;;;-0.88;100.00;99364.81;5054784;28;20163;-82
2022/12/12 07:33:22;;;;;;;24.95;13.23;;;;;;;-0.80;100.00;99376.63;5055068;28;20104;-78
2022/12/12 07:35:47;;;;;;;28.20;13.88;;;;;;;-0.75;100.00;99376.88;5037177;28;20025;-81
2022/12/12 07:38:14;;;;;;;29.42;12.70;;;;;;;-0.71;100.00;99386.00;5021018;28;20025;-78
2022/12/12 07:40:40;;;;;;;25.92;13.35;;;;;;;-0.75;100.00;99379.69;5037505;28;20025;-80
2022/12/12 07:43:06;;;;;;;26.15;12.40;;;;;;;-0.70;100.00;99375.56;5037309;28;20119;-81
2022/12/12 07:45:31;;;;;;;29.10;13.40;;;;;;;-0.70;100.00;99386.78;5037157;28;20116;-77
2022/12/12 07:47:57;;;;;;;26.90;11.40;;;;;;;-0.62;100.00;99387.41;5051973;28;20028;-81
2022/12/12 07:50:23;;;;;;;25.98;12.65;;;;;;;-0.61;100.00;99392.56;5038219;28;20049;-81
2022/12/12 07:52:48;;;;;;;28.83;12.73;;;;;;;-0.59;100.00;99380.91;5034415;28;20486;-79
2022/12/12 07:55:15;;;;;;;27.92;12.00;;;;;;;-0.66;100.00;99381.88;5017188;28;20033;-87
2022/12/12 07:57:40;;;;;;;27.27;12.88;;;;;;;-0.69;100.00;99379.94;5016789;28;20441;-83
2022/12/12 08:00:09;;;;;;;26.45;11.93;;;;;;;-0.60;100.00;99387.75;5016871;28;20034;-81
2022/12/12 08:02:34;;;;;;;20.55;11.82;;;;;;;-0.55;100.00;99384.41;5034031;28;20545;-81
2022/12/12 08:05:00;;;;;;;26.70;13.13;;;;;;;-0.59;100.00;99390.13;5034868;28;20033;-81
2022/12/12 08:07:27;;;;;;;25.05;12.15;;;;;;;-0.57;100.00;99386.88;5016663;28;20405;-81
2022/12/12 08:09:52;;;;;;;22.52;11.63;;;;;;;-0.55;100.00;99390.81;5034025;28;20037;-81
2022/12/12 08:12:17;;;;;;;25.92;12.63;;;;;;;-0.47;100.00;99385.81;5034250;28;20104;-86
2022/12/12 08:14:43;;;;;;;27.33;12.63;;;;;;;-0.41;100.00;99389.66;5016556;28;20028;-84
2022/12/12 08:17:08;;;;;;;25.65;10.77;;;;;;;-0.36;100.00;99392.72;5034257;28;20429;-81
2022/12/12 08:19:35;;;;;;;29.40;12.52;;;;;;;-0.36;100.00;99392.72;5016877;28;20032;-81
2022/12/12 08:22:00;;;;;;;27.17;12.27;;;;;;;-0.31;100.00;99392.19;5000172;28;20040;-82
2022/12/12 08:24:27;;;;;;;25.10;11.95;;;;;;;-0.19;100.00;99387.06;5016092;28;20025;-81
2022/12/12 08:26:53;;;;;;;24.27;12.20;;;;;;;-0.21;100.00;99376.28;5017078;28;20025;-90
2022/12/12 08:29:19;;;;;;;26.30;12.57;;;;;;;-0.20;100.00;99379.88;5001236;28;20030;-89
2022/12/12 08:31:44;;;;;;;26.30;12.63;;;;;;;-0.15;100.00;99382.94;5012084;28;20051;-85
2022/12/12 08:34:09;;;;;;;25.65;12.73;;;;;;;-0.09;100.00;99388.81;5035720;28;20026;-81
2022/12/12 08:36:35;;;;;;;27.05;11.40;;;;;;;-0.08;100.00;99381.97;5015242;28;20105;-82
2022/12/12 08:39:07;;;;;;;33.35;12.60;;;;;;;0.07;100.00;99392.34;5033587;28;20049;-80
2022/12/12 08:41:38;;;;;;;31.92;14.70;;;;;;;0.12;100.00;99397.41;5014783;28;20489;-85
2022/12/12 08:44:04;;;;;;;28.38;12.85;;;;;;;0.16;100.00;99394.53;4999866;28;20119;-78
2022/12/12 08:46:29;;;;;;;33.13;14.25;;;;;;;0.07;100.00;99391.56;5032890;28;20060;-84
2022/12/12 08:48:54;;;;;;;30.70;13.43;;;;;;;0.04;100.00;99393.22;5034212;28;20029;-83
2022/12/12 08:51:20;;;;;;;34.08;13.60;;;;;;;0.05;100.00;99397.63;5000031;28;20489;-83
2022/12/12 08:53:50;;;;;;;26.00;13.55;;;;;;;0.11;100.00;99412.72;5034122;28;20059;-88
2022/12/12 08:56:16;;;;;;;27.92;13.23;;;;;;;0.06;100.00;99409.66;5012560;28;20123;-83
2022/12/12 08:58:42;;;;;;;23.23;11.68;;;;;;;0.05;100.00;99408.06;5054143;28;20100;-80
2022/12/12 09:01:26;;;;;;;25.48;12.18;;;;;;;0.06;100.00;99418.06;5050537;28;20063;-80
2022/12/12 09:03:54;;;;;;;27.58;12.00;;;;;;;-0.02;100.00;99391.41;5035987;28;20025;-80
2022/12/12 09:06:21;;;;;;;22.45;11.45;;;;;;;0.17;100.00;99408.09;5033476;28;20026;-81
2022/12/12 09:08:46;;;;;;;23.13;11.82;;;;;;;0.11;100.00;99418.31;5033562;28;20561;-83
2022/12/12 09:11:12;;;;;;;28.13;11.30;;;;;;;0.10;100.00;99404.72;5045454;28;20021;-80
2022/12/12 09:13:38;;;;;;;22.17;11.27;;;;;;;0.01;100.00;99402.56;5031710;28;20037;-82
2022/12/12 09:16:05;;;;;;;20.58;11.00;;;;;;;0.03;100.00;99413.31;5033003;28;20084;-81
2022/12/12 09:18:30;;;;;;;21.40;10.82;;;;;;;0.01;100.00;99405.34;5037000;28;20025;-79
2022/12/12 09:20:57;;;;;;;23.30;11.73;;;;;;;0.02;100.00;99411.78;5015793;28;20052;-81
2022/12/12 09:23:23;;;;;;;20.50;10.32;;;;;;;0.01;100.00;99415.81;5015574;28;20029;-79
2022/12/12 09:25:49;;;;;;;22.60;10.52;;;;;;;-0.07;100.00;99408.78;5031027;28;20029;-82
2022/12/12 09:28:16;;;;;;;24.67;12.05;;;;;;;-0.04;100.00;99421.97;5033386;28;20022;-81
2022/12/12 09:30:42;;;;;;;18.20;10.38;;;;;;;0.03;100.00;99422.53;5015551;28;20037;-77
2022/12/12 09:33:08;;;;;;;21.40;10.85;;;;;;;0.09;100.00;99417.97;5039130;28;20044;-78
2022/12/12 09:35:34;;;;;;;19.92;11.02;;;;;;;0.17;100.00;99418.56;5033689;28;20363;-79
2022/12/12 09:37:59;;;;;;;20.55;10.50;;;;;;;0.17;100.00;99416.53;5032896;28;20030;-77
2022/12/12 09:40:55;;;;;;;21.60;10.15;;;;;;;0.26;100.00;99418.72;5045491;28;20044;-78
2022/12/12 09:43:26;;;;;;;19.05;10.10;;;;;;;0.33;100.00;99409.28;5050932;28;20033;-83
2022/12/12 09:45:52;;;;;;;24.70;10.57;;;;;;;0.45;100.00;99420.56;5019245;28;20496;-75
2022/12/12 09:48:35;;;;;;;20.00;10.68;;;;;;;0.46;100.00;99413.72;5016486;28;20051;-81
2022/12/12 09:51:01;;;;;;;19.13;9.82;;;;;;;0.58;100.00;99421.38;4998894;28;20029;-75
2022/12/12 09:53:27;;;;;;;20.55;9.65;;;;;;;0.66;100.00;99418.34;5032615;28;20024;-77
2022/12/12 09:56:06;;;;;;;20.60;10.00;;;;;;;0.74;100.00;99420.50;5018313;28;20075;-78
2022/12/12 09:58:52;;;;;;;18.80;10.00;;;;;;;0.82;100.00;99412.63;4983228;28;20021;-78
2022/12/12 10:01:35;;;;;;;20.27;10.02;;;;;;;0.90;100.00;99414.78;5033176;28;20037;-81
2022/12/12 10:04:04;;;;;;;21.50;10.77;;;;;;;0.91;100.00;99409.97;5031570;28;20108;-85
2022/12/12 10:06:40;;;;;;;20.75;10.00;;;;;;;0.89;100.00;99412.41;5032694;28;20116;-83
2022/12/12 10:09:29;;;;;;;20.90;9.77;;;;;;;0.94;100.00;99409.84;5033459;28;20441;-81
2022/12/12 10:11:55;;;;;;;18.33;10.05;;;;;;;1.07;100.00;99409.81;5007862;28;20022;-80
2022/12/12 10:14:43;;;;;;;18.10;10.18;;;;;;;1.17;100.00;99413.53;5008551;28;20124;-77
2022/12/12 10:17:25;;;;;;;20.73;9.90;;;;;;;1.28;100.00;99411.19;5014700;28;20022;-78
2022/12/12 10:19:59;;;;;;;16.85;8.65;;;;;;;1.27;100.00;99407.56;5014343;28;20059;-78
2022/12/12 10:22:44;;;;;;;18.77;10.40;;;;;;;1.24;100.00;99405.69;5014867;28;20033;-76
2022/12/12 10:25:19;;;;;;;23.10;9.80;;;;;;;1.33;100.00;99417.03;5036633;28;20029;-77
2022/12/12 10:27:44;;;;;;;19.95;9.27;;;;;;;1.27;100.00;99401.94;5036534;28;20108;-77
2022/12/12 10:30:16;;;;;;;20.90;11.02;;;;;;;1.31;100.00;99415.88;5035446;28;20104;-78
2022/12/12 10:32:59;;;;;;;26.35;9.65;;;;;;;1.28;100.00;99414.78;5002426;28;20029;-77
2022/12/12 10:35:56;;;;;;;21.90;9.60;;;;;;;1.28;100.00;99409.16;5037618;28;20064;-80
2022/12/12 10:38:30;;;;;;;23.55;10.63;;;;;;;1.32;100.00;99403.41;5033774;28;20045;-79
2022/12/12 10:41:03;;;;;;;18.63;10.90;;;;;;;1.32;100.00;99409.03;5018340;28;20033;-81
2022/12/12 10:43:34;;;;;;;17.92;10.60;;;;;;;1.26;100.00;99403.19;5051369;28;20022;-79
2022/12/12 10:46:14;;;;;;;20.27;9.38;;;;;;;1.33;100.00;99410.59;5018211;28;20441;-79
2022/12/12 10:48:39;;;;;;;18.90;9.82;;;;;;;1.24;100.00;99405.69;5030012;28;20032;-81
2022/12/12 10:51:08;;;;;;;17.13;9.25;;;;;;;1.15;100.00;99397.13;4996378;28;20041;-77
2022/12/12 10:53:33;;;;;;;21.98;10.20;;;;;;;0.92;100.00;99363.69;5014698;28;20046;-80
2022/12/12 10:56:17;;;;;;;22.95;10.45;;;;;;;1.31;100.00;99410.25;5000202;28;20065;-77
2022/12/12 10:58:43;;;;;;;18.75;10.05;;;;;;;1.28;100.00;99403.53;5020568;28;20037;-79
2022/12/12 11:01:21;;;;;;;23.02;11.13;;;;;;;1.38;100.00;99413.66;4998220;28;20037;-78
2022/12/12 11:03:47;;;;;;;22.42;9.80;;;;;;;1.40;100.00;99408.34;5015501;28;20483;-81
2022/12/12 11:06:29;;;;;;;26.08;10.80;;;;;;;1.44;100.00;99409.03;4998468;28;20050;-80
2022/12/12 11:09:06;;;;;;;22.60;11.35;;;;;;;1.59;100.00;99408.56;5014807;28;20042;-81
2022/12/12 11:11:32;;;;;;;19.58;9.73;;;;;;;1.46;100.00;99402.94;4981203;28;20375;-77
2022/12/12 11:14:00;;;;;;;21.38;10.70;;;;;;;1.52;100.00;99409.56;4997097;28;20522;-77
2022/12/12 11:16:30;;;;;;;23.77;12.50;;;;;;;1.54;100.00;99409.91;4982390;28;20052;-81
2022/12/12 11:19:05;;;;;;;20.15;9.27;;;;;;;1.60;100.00;99408.06;4998099;28;20026;-81
2022/12/12 11:21:33;;;;;;;21.48;10.52;;;;;;;1.58;100.00;99406.97;5015792;28;20018;-80
2022/12/12 11:24:04;;;;;;;27.73;10.57;;;;;;;1.69;100.00;99404.59;5015237;28;20026;-79
2022/12/12 11:26:49;;;;;;;23.98;10.18;;;;;;;1.70;100.00;99398.47;4998635;28;20475;-78
2022/12/12 11:29:39;;;;;;;19.42;10.15;;;;;;;1.83;100.00;99407.69;5015747;28;20063;-81
2022/12/12 11:32:24;;;;;;;25.02;10.07;;;;;;;1.79;100.00;99401.41;5015275;28;20056;-77
2022/12/12 11:34:52;;;;;;;18.17;9.40;;;;;;;1.88;100.00;99409.94;5015027;28;20028;-82
2022/12/12 11:37:20;;;;;;;22.40;9.88;;;;;;;1.91;100.00;99413.84;4996864;28;20077;-80
2022/12/12 11:39:48;;;;;;;24.02;10.05;;;;;;;1.88;100.00;99407.13;5014898;28;20426;-79
2022/12/12 11:42:24;;;;;;;21.98;10.15;;;;;;;1.94;100.00;99404.50;5015148;28;20033;-79